M I D A S
Marine Information and Data Acquisition System
Tripno 1752 of the Zeeleeuw from 2009-08-21 06:43:00 to 2009-08-21 13:53:53
Back to CruiseResearch ActivitiesStationsMapUnderway DataData graphs

EquipmentUnitsComment
TimeDGPSUTC
LatitudeDGPSDM.mWGS84
LongitudeDGPSDM.mWGS84
HeadingGyrodeg 
SOGDGPSknotsSpeed over ground
COGDGPSdegCourse over ground
DepthEcho soundermeters200 kHz
Missing or incorrect values are displayed as -999
Navigation data collected by the RV Zeeleeuw from 2009-08-21 06:43:00 to 2009-08-21 13:53:53
                                                                                    Next 1000 lines
Time Latitude Longitude Heading SOG COG Depth
2009-08-21 06:43:20 51°13.689 2°55.906 128.9   213 -999
2009-08-21 06:43:30 51°13.689 2°55.906 128.9   213 -999
2009-08-21 06:43:40 51°13.689 2°55.906 128.9   213 -999
2009-08-21 06:43:50 51°13.689 2°55.906 128.9   213 -999
2009-08-21 06:44:00 51°13.689 2°55.906 128.9   351 -999
2009-08-21 06:44:10 51°13.689 2°55.906 128.9   351 -999
2009-08-21 06:44:20 51°13.689 2°55.906 128.9   351 -999
2009-08-21 06:44:30 51°13.689 2°55.905 128.9   351 -999
2009-08-21 06:44:40 51°13.689 2°55.905 128.9   351 -999
2009-08-21 06:44:50 51°13.689 2°55.905 128.9   351 -999
2009-08-21 06:45:00 51°13.688 2°55.905 124.5 0.1 189 -999
2009-08-21 06:45:10 51°13.688 2°55.905 124.5 0.1 189 -999
2009-08-21 06:45:20 51°13.688 2°55.905 124.5 0.1 189 -999
2009-08-21 06:45:30 51°13.688 2°55.905 124.5 0.1 189 -999
2009-08-21 06:45:40 51°13.686 2°55.905 124.5 0.1 189 -999
2009-08-21 06:45:50 51°13.686 2°55.905 124.5 0.1 189 -999
2009-08-21 06:46:00 51°13.686 2°55.905 115.5 0.1 173 -999
2009-08-21 06:46:10 51°13.686 2°55.905 115.5 0.1 173 -999
2009-08-21 06:46:20 51°13.686 2°55.905 115.5 0.1 173 -999
2009-08-21 06:46:30 51°13.687 2°55.904 115.5 0.1 173 -999
2009-08-21 06:46:40 51°13.687 2°55.901 115.5 0.1 173 -999
2009-08-21 06:46:50 51°13.688 2°55.896 115.5 0.1 173 -999
2009-08-21 06:47:00 51°13.69 2°55.887 110.4 2.2 290 -999
2009-08-21 06:47:10 51°13.692 2°55.876 110.4 2.2 290 -999
2009-08-21 06:47:20 51°13.695 2°55.863 110.4 2.2 290 -999
2009-08-21 06:47:30 51°13.698 2°55.849 110.4 2.2 290 -999
2009-08-21 06:47:40 51°13.7 2°55.833 110.4 2.2 290 -999
2009-08-21 06:47:50 51°13.702 2°55.816 110.4 2.2 290 -999
2009-08-21 06:48:00 51°13.704 2°55.799 97.2 4 279 -999
2009-08-21 06:48:10 51°13.705 2°55.783 97.2 4 279 -999
2009-08-21 06:48:20 51°13.706 2°55.769 97.2 4 279 -999
2009-08-21 06:48:30 51°13.707 2°55.756 97.2 4 279 -999
2009-08-21 06:48:40 51°13.708 2°55.746 97.2 4 279 -999
2009-08-21 06:48:50 51°13.708 2°55.739 97.2 4 279 -999
2009-08-21 06:49:00 51°13.709 2°55.733 78.2 1.1 280 -999
2009-08-21 06:49:10 51°13.709 2°55.73 78.2 1.1 280 -999
2009-08-21 06:49:20 51°13.711 2°55.728 78.2 1.1 280 -999
2009-08-21 06:49:30 51°13.713 2°55.728 78.2 1.1 280 -999
2009-08-21 06:49:40 51°13.715 2°55.73 78.2 1.1 280 -999
2009-08-21 06:49:50 51°13.718 2°55.731 78.2 1.1 280 -999
2009-08-21 06:50:00 51°13.721 2°55.732 28.1 1.39 8 -999
2009-08-21 06:50:10 51°13.727 2°55.733 28.1 1.39 8 -999
2009-08-21 06:50:20 51°13.734 2°55.731 28.1 1.39 8 -999
2009-08-21 06:50:30 51°13.743 2°55.725 28.1 1.39 8 -999
2009-08-21 06:50:40 51°13.752 2°55.716 28.1 1.39 8 -999
2009-08-21 06:50:50 51°13.764 2°55.704 28.1 1.39 8 -999
2009-08-21 06:51:00 51°13.777 2°55.691 328.3 5.79 328 -999
2009-08-21 06:51:10 51°13.791 2°55.676 328.3 5.79 328 -999
2009-08-21 06:51:20 51°13.808 2°55.661 328.3 5.79 328 -999
2009-08-21 06:51:30 51°13.826 2°55.645 328.3 5.79 328 -999
2009-08-21 06:51:40 51°13.845 2°55.629 328.3 5.79 328 -999
2009-08-21 06:51:50 51°13.864 2°55.613 328.3 5.79 328 -999
2009-08-21 06:52:00 51°13.884 2°55.597 334.6 8.09 333 -999
2009-08-21 06:52:10 51°13.905 2°55.581 334.6 8.09 333 -999
2009-08-21 06:52:20 51°13.925 2°55.563 334.6 8.09 333 -999
2009-08-21 06:52:30 51°13.946 2°55.547 334.6 8.09 333 -999
2009-08-21 06:52:40 51°13.967 2°55.531 334.6 8.09 333 -999
2009-08-21 06:52:50 51°13.989 2°55.515 334.6 8.09 333 -999
2009-08-21 06:53:00 51°14.01 2°55.499 336.3 8.5 335 -999
2009-08-21 06:53:10 51°14.032 2°55.483 336.3 8.5 335 -999
2009-08-21 06:53:20 51°14.054 2°55.467 336.3 8.5 335 -999
2009-08-21 06:53:30 51°14.075 2°55.449 336.3 8.5 335 -999
2009-08-21 06:53:40 51°14.097 2°55.431 336.3 8.5 335 -999
2009-08-21 06:53:50 51°14.118 2°55.413 336.3 8.5 335 -999
2009-08-21 06:54:00 51°14.14 2°55.395 336.5 8.9 332 -999
2009-08-21 06:54:10 51°14.162 2°55.375 336.5 8.9 332 -999
2009-08-21 06:54:20 51°14.183 2°55.355 336.5 8.9 332 -999
2009-08-21 06:54:30 51°14.203 2°55.332 336.5 8.9 332 -999
2009-08-21 06:54:40 51°14.222 2°55.307 336.5 8.9 332 -999
2009-08-21 06:54:50 51°14.24 2°55.28 336.5 8.9 332 -999
2009-08-21 06:55:00 51°14.258 2°55.251 318.1 9.3 315 -999
2009-08-21 06:55:10 51°14.276 2°55.22 318.1 9.3 315 -999
2009-08-21 06:55:20 51°14.294 2°55.188 318.1 9.3 315 -999
2009-08-21 06:55:30 51°14.313 2°55.155 318.1 9.3 315 -999
2009-08-21 06:55:40 51°14.332 2°55.124 318.1 9.3 315 -999
2009-08-21 06:55:50 51°14.352 2°55.092 318.1 9.3 315 -999
2009-08-21 06:56:00 51°14.371 2°55.059 315 10.09 313 -999
2009-08-21 06:56:10 51°14.391 2°55.027 315 10.09 313 -999
2009-08-21 06:56:20 51°14.412 2°54.999 315 10.09 313 -999
2009-08-21 06:56:30 51°14.434 2°54.971 315 10.09 313 -999
2009-08-21 06:56:40 51°14.456 2°54.944 315 10.09 313 -999
2009-08-21 06:56:50 51°14.479 2°54.918 315 10.09 313 -999
2009-08-21 06:57:00 51°14.501 2°54.889 327.8 10.19 321 -999
2009-08-21 06:57:10 51°14.522 2°54.86 327.8 10.19 321 -999
2009-08-21 06:57:20 51°14.545 2°54.834 327.8 10.19 321 -999
2009-08-21 06:57:30 51°14.568 2°54.811 327.8 10.19 321 -999
2009-08-21 06:57:40 51°14.592 2°54.787 327.8 10.19 321 -999
2009-08-21 06:57:50 51°14.615 2°54.763 327.8 10.19 321 -999
2009-08-21 06:58:00 51°14.638 2°54.739 336 10 327 -999
2009-08-21 06:58:10 51°14.662 2°54.715 336 10 327 -999
2009-08-21 06:58:20 51°14.685 2°54.69 336 10 327 -999
2009-08-21 06:58:30 51°14.708 2°54.667 336 10 327 -999
2009-08-21 06:58:40 51°14.731 2°54.643 336 10 327 -999
2009-08-21 06:58:50 51°14.755 2°54.62 336 10 327 -999
2009-08-21 06:59:00 51°14.778 2°54.597 336.1 9.9 329 -999
2009-08-21 06:59:10 51°14.802 2°54.574 336.1 9.9 329 -999
2009-08-21 06:59:20 51°14.825 2°54.551 336.1 9.9 329 -999
2009-08-21 06:59:30 51°14.849 2°54.528 336.1 9.9 329 -999
2009-08-21 06:59:40 51°14.872 2°54.506 336.1 9.9 329 -999
2009-08-21 06:59:50 51°14.895 2°54.483 336.1 9.9 329 -999
2009-08-21 07:00:00 51°14.918 2°54.461 336.1 9.8 328 -999
2009-08-21 07:00:10 51°14.942 2°54.439 336.1 9.8 328 -999
2009-08-21 07:00:20 51°14.965 2°54.417 336.1 9.8 328 -999
2009-08-21 07:00:30 51°14.988 2°54.395 336.1 9.8 328 -999
2009-08-21 07:00:40 51°15.012 2°54.374 336.1 9.8 328 -999
2009-08-21 07:00:50 51°15.036 2°54.353 336.1 9.8 328 -999
2009-08-21 07:01:00 51°15.059 2°54.331 336.1 9.8 330 -999
2009-08-21 07:01:10 51°15.083 2°54.309 336.1 9.8 330 -999
2009-08-21 07:01:20 51°15.106 2°54.286 336.1 9.8 330 -999
2009-08-21 07:01:30 51°15.13 2°54.264 336.1 9.8 330 -999
2009-08-21 07:01:40 51°15.153 2°54.242 336.1 9.8 330 -999
2009-08-21 07:01:50 51°15.177 2°54.219 336.1 9.8 330 -999
2009-08-21 07:02:00 51°15.2 2°54.197 335.1 9.9 329 -999
2009-08-21 07:02:10 51°15.224 2°54.175 335.1 9.9 329 -999
2009-08-21 07:02:20 51°15.247 2°54.153 335.1 9.9 329 -999
2009-08-21 07:02:30 51°15.271 2°54.131 335.1 9.9 329 -999
2009-08-21 07:02:40 51°15.295 2°54.109 335.1 9.9 329 -999
2009-08-21 07:02:50 51°15.318 2°54.087 335.1 9.9 329 -999
2009-08-21 07:03:00 51°15.341 2°54.064 335.3 9.9 329 -999
2009-08-21 07:03:10 51°15.365 2°54.042 335.3 9.9 329 -999
2009-08-21 07:03:20 51°15.389 2°54.02 335.3 9.9 329 -999
2009-08-21 07:03:30 51°15.412 2°53.998 335.3 9.9 329 -999
2009-08-21 07:03:40 51°15.438 2°53.973 335.3 9.9 329 -999
2009-08-21 07:03:50 51°15.461 2°53.95 335.3 9.9 329 -999
2009-08-21 07:04:00 51°15.485 2°53.927 335.8 9.9 328 -999
2009-08-21 07:04:10 51°15.508 2°53.904 335.8 9.9 328 -999
2009-08-21 07:04:20 51°15.531 2°53.881 335.8 9.9 328 -999
2009-08-21 07:04:30 51°15.555 2°53.858 335.8 9.9 328 -999
2009-08-21 07:04:40 51°15.578 2°53.836 335.8 9.9 328 -999
2009-08-21 07:04:50 51°15.601 2°53.812 335.8 9.9 328 -999
2009-08-21 07:05:00 51°15.625 2°53.789 335.1 10.3 328 -999
2009-08-21 07:05:10 51°15.65 2°53.764 335.1 10.3 328 -999
2009-08-21 07:05:20 51°15.676 2°53.739 335.1 10.3 328 -999
2009-08-21 07:05:30 51°15.702 2°53.714 335.1 10.3 328 -999
2009-08-21 07:05:40 51°15.729 2°53.688 335.1 10.3 328 -999
2009-08-21 07:05:50 51°15.755 2°53.662 335.1 10.3 328 -999
2009-08-21 07:06:00 51°15.782 2°53.636 336.3 11.3 329 -999
2009-08-21 07:06:10 51°15.809 2°53.61 336.3 11.3 329 -999
2009-08-21 07:06:20 51°15.835 2°53.583 336.3 11.3 329 -999
2009-08-21 07:06:30 51°15.862 2°53.557 336.3 11.3 329 -999
2009-08-21 07:06:40 51°15.886 2°53.533 336.3 11.3 329 -999
2009-08-21 07:06:50 51°15.915 2°53.504 336.3 11.3 329 -999
2009-08-21 07:07:00 51°15.939 2°53.48 335.5 11.19 328 -999
2009-08-21 07:07:10 51°15.966 2°53.454 335.5 11.19 328 -999
2009-08-21 07:07:20 51°15.992 2°53.427 335.5 11.19 328 -999
2009-08-21 07:07:30 51°16.018 2°53.4 335.5 11.19 328 -999
2009-08-21 07:07:40 51°16.045 2°53.373 335.5 11.19 328 -999
2009-08-21 07:07:50 51°16.071 2°53.347 335.5 11.19 328 -999
2009-08-21 07:08:00 51°16.098 2°53.321 335.3 11.19 327 -999
2009-08-21 07:08:10 51°16.124 2°53.294 335.3 11.19 327 -999
2009-08-21 07:08:20 51°16.151 2°53.267 335.3 11.19 327 -999
2009-08-21 07:08:30 51°16.177 2°53.241 335.3 11.19 327 -999
2009-08-21 07:08:40 51°16.207 2°53.212 335.3 11.19 327 -999
2009-08-21 07:08:50 51°16.23 2°53.189 335.3 11.19 327 -999
2009-08-21 07:09:00 51°16.257 2°53.162 335.6 11.3 328 -999
2009-08-21 07:09:10 51°16.284 2°53.136 335.6 11.3 328 -999
2009-08-21 07:09:20 51°16.31 2°53.109 335.6 11.3 328 -999
2009-08-21 07:09:30 51°16.339 2°53.081 335.6 11.3 328 -999
2009-08-21 07:09:40 51°16.365 2°53.054 335.6 11.3 328 -999
2009-08-21 07:09:50 51°16.392 2°53.028 335.6 11.3 328 -999
2009-08-21 07:10:00 51°16.418 2°53.001 335.3 11.19 329 -999
2009-08-21 07:10:10 51°16.445 2°52.975 335.3 11.19 329 -999
2009-08-21 07:10:20 51°16.471 2°52.948 335.3 11.19 329 -999
2009-08-21 07:10:30 51°16.497 2°52.922 335.3 11.19 329 -999
2009-08-21 07:10:40 51°16.523 2°52.896 335.3 11.19 329 -999
2009-08-21 07:10:50 51°16.55 2°52.87 335.3 11.19 329 -999
2009-08-21 07:11:00 51°16.576 2°52.844 334.6 11.09 327 -999
2009-08-21 07:11:10 51°16.602 2°52.818 334.6 11.09 327 -999
2009-08-21 07:11:20 51°16.629 2°52.794 334.6 11.09 327 -999
2009-08-21 07:11:30 51°16.655 2°52.769 334.6 11.09 327 -999
2009-08-21 07:11:40 51°16.679 2°52.747 334.6 11.09 327 -999
2009-08-21 07:11:50 51°16.706 2°52.723 334.6 11.09 327 -999
2009-08-21 07:12:00 51°16.732 2°52.699 335.3 10.9 331 -999
2009-08-21 07:12:10 51°16.761 2°52.673 335.3 10.9 331 -999
2009-08-21 07:12:20 51°16.784 2°52.652 335.3 10.9 331 -999
2009-08-21 07:12:30 51°16.81 2°52.628 335.3 10.9 331 -999
2009-08-21 07:12:40 51°16.838 2°52.6 335.3 10.9 331 -999
2009-08-21 07:12:50 51°16.864 2°52.576 335.3 10.9 331 -999
2009-08-21 07:13:00 51°16.89 2°52.552 335.5 10.8 330 -999
2009-08-21 07:13:10 51°16.913 2°52.53 335.5 10.8 330 -999
2009-08-21 07:13:20 51°16.939 2°52.505 335.5 10.8 330 -999
2009-08-21 07:13:30 51°16.965 2°52.481 335.5 10.8 330 -999
2009-08-21 07:13:40 51°16.99 2°52.456 335.5 10.8 330 -999
2009-08-21 07:13:50 51°17.016 2°52.432 335.5 10.8 330 -999
2009-08-21 07:14:00 51°17.042 2°52.411 335.8 10.59 336 -999
2009-08-21 07:14:10 51°17.069 2°52.391 335.8 10.59 336 -999
2009-08-21 07:14:20 51°17.096 2°52.372 335.8 10.59 336 -999
2009-08-21 07:14:30 51°17.123 2°52.355 335.8 10.59 336 -999
2009-08-21 07:14:40 51°17.15 2°52.338 335.8 10.59 336 -999
2009-08-21 07:14:50 51°17.178 2°52.322 335.8 10.59 336 -999
2009-08-21 07:15:00 51°17.205 2°52.306 345.6 10.5 340 -999
2009-08-21 07:15:10 51°17.233 2°52.291 345.6 10.5 340 -999
2009-08-21 07:15:20 51°17.263 2°52.274 345.6 10.5 340 -999
2009-08-21 07:15:30 51°17.291 2°52.258 345.6 10.5 340 -999
2009-08-21 07:15:40 51°17.319 2°52.244 345.6 10.5 340 -999
2009-08-21 07:15:50 51°17.347 2°52.229 345.6 10.5 340 -999
2009-08-21 07:16:00 51°17.374 2°52.214 347 10.59 341 -999
2009-08-21 07:16:10 51°17.402 2°52.198 347 10.59 341 -999
2009-08-21 07:16:20 51°17.43 2°52.184 347 10.59 341 -999
2009-08-21 07:16:30 51°17.458 2°52.173 347 10.59 341 -999
2009-08-21 07:16:40 51°17.486 2°52.167 347 10.59 341 -999
2009-08-21 07:16:50 51°17.515 2°52.164 347 10.59 341 -999
2009-08-21 07:17:00 51°17.543 2°52.165 1 10 3 -999
2009-08-21 07:17:10 51°17.57 2°52.169 1 10 3 -999
2009-08-21 07:17:20 51°17.598 2°52.176 1 10 3 -999
2009-08-21 07:17:30 51°17.625 2°52.187 1 10 3 -999
2009-08-21 07:17:40 51°17.652 2°52.198 1 10 3 -999
2009-08-21 07:17:50 51°17.678 2°52.212 1 10 3 -999
2009-08-21 07:18:00 51°17.704 2°52.227 20.8 10.09 19 -999
2009-08-21 07:18:10 51°17.728 2°52.241 20.8 10.09 19 -999
2009-08-21 07:18:20 51°17.754 2°52.257 20.8 10.09 19 -999
2009-08-21 07:18:30 51°17.78 2°52.272 20.8 10.09 19 -999
2009-08-21 07:18:40 51°17.807 2°52.285 20.8 10.09 19 -999
2009-08-21 07:18:50 51°17.832 2°52.3 20.8 10.09 19 -999
2009-08-21 07:19:00 51°17.859 2°52.313 20.5 10.09 19 -999
2009-08-21 07:19:10 51°17.886 2°52.324 20.5 10.09 19 -999
2009-08-21 07:19:20 51°17.913 2°52.337 20.5 10.09 19 -999
2009-08-21 07:19:30 51°17.94 2°52.35 20.5 10.09 19 -999
2009-08-21 07:19:40 51°17.967 2°52.362 20.5 10.09 19 -999
2009-08-21 07:19:50 51°17.994 2°52.373 20.5 10.09 19 -999
2009-08-21 07:20:00 51°18.021 2°52.383 18.6 10.09 13 -999
2009-08-21 07:20:10 51°18.048 2°52.395 18.6 10.09 13 -999
2009-08-21 07:20:20 51°18.075 2°52.406 18.6 10.09 13 -999
2009-08-21 07:20:30 51°18.102 2°52.416 18.6 10.09 13 -999
2009-08-21 07:20:40 51°18.13 2°52.425 18.6 10.09 13 -999
2009-08-21 07:20:50 51°18.157 2°52.435 18.6 10.09 13 -999
2009-08-21 07:21:00 51°18.185 2°52.445 17.3 10.19 13 -999
2009-08-21 07:21:10 51°18.215 2°52.456 17.3 10.19 13 -999
2009-08-21 07:21:20 51°18.242 2°52.467 17.3 10.19 13 -999
2009-08-21 07:21:30 51°18.27 2°52.477 17.3 10.19 13 -999
2009-08-21 07:21:40 51°18.297 2°52.487 17.3 10.19 13 -999
2009-08-21 07:21:50 51°18.324 2°52.498 17.3 10.19 13 -999
2009-08-21 07:22:00 51°18.352 2°52.509 16.6 10.09 15 -999
2009-08-21 07:22:10 51°18.379 2°52.519 16.6 10.09 15 -999
2009-08-21 07:22:20 51°18.406 2°52.53 16.6 10.09 15 -999
2009-08-21 07:22:30 51°18.433 2°52.541 16.6 10.09 15 -999
2009-08-21 07:22:40 51°18.461 2°52.551 16.6 10.09 15 -999
2009-08-21 07:22:50 51°18.488 2°52.561 16.6 10.09 15 -999
2009-08-21 07:23:00 51°18.514 2°52.574 19 10 17 -999
2009-08-21 07:23:10 51°18.541 2°52.585 19 10 17 -999
2009-08-21 07:23:20 51°18.568 2°52.596 19 10 17 -999
2009-08-21 07:23:30 51°18.595 2°52.609 19 10 17 -999
2009-08-21 07:23:40 51°18.622 2°52.622 19 10 17 -999
2009-08-21 07:23:50 51°18.648 2°52.634 19 10 17 -999
2009-08-21 07:24:00 51°18.675 2°52.646 19.6 10 16 -999
2009-08-21 07:24:10 51°18.702 2°52.658 19.6 10 16 -999
2009-08-21 07:24:20 51°18.73 2°52.669 19.6 10 16 -999
2009-08-21 07:24:30 51°18.757 2°52.681 19.6 10 16 -999
2009-08-21 07:24:40 51°18.784 2°52.693 19.6 10 16 -999
2009-08-21 07:24:50 51°18.811 2°52.705 19.6 10 16 -999
2009-08-21 07:25:00 51°18.838 2°52.717 19.6 10.09 16 -999
2009-08-21 07:25:10 51°18.865 2°52.73 19.6 10.09 16 -999
2009-08-21 07:25:20 51°18.892 2°52.742 19.6 10.09 16 -999
2009-08-21 07:25:30 51°18.92 2°52.753 19.6 10.09 16 -999
2009-08-21 07:25:40 51°18.947 2°52.765 19.6 10.09 16 -999
2009-08-21 07:25:50 51°18.974 2°52.777 19.6 10.09 16 -999
2009-08-21 07:26:00 51°19.001 2°52.789 19.6 10.09 16 -999
2009-08-21 07:26:10 51°19.025 2°52.8 19.6 10.09 16 -999
2009-08-21 07:26:20 51°19.053 2°52.811 19.6 10.09 16 -999
2009-08-21 07:26:30 51°19.08 2°52.823 19.6 10.09 16 -999
2009-08-21 07:26:40 51°19.107 2°52.836 19.6 10.09 16 -999
2009-08-21 07:26:50 51°19.134 2°52.846 19.6 10.09 16 -999
2009-08-21 07:27:00 51°19.161 2°52.858 19.8 10.3 11 -999
2009-08-21 07:27:10 51°19.189 2°52.869 19.8 10.3 11 -999
2009-08-21 07:27:20 51°19.216 2°52.881 19.8 10.3 11 -999
2009-08-21 07:27:30 51°19.244 2°52.892 19.8 10.3 11 -999
2009-08-21 07:27:40 51°19.271 2°52.903 19.8 10.3 11 -999
2009-08-21 07:27:50 51°19.298 2°52.914 19.8 10.3 11 -999
2009-08-21 07:28:00 51°19.325 2°52.926 19.6 10.19 12 -999
2009-08-21 07:28:10 51°19.352 2°52.938 19.6 10.19 12 -999
2009-08-21 07:28:20 51°19.38 2°52.948 19.6 10.19 12 -999
2009-08-21 07:28:30 51°19.407 2°52.96 19.6 10.19 12 -999
2009-08-21 07:28:40 51°19.437 2°52.971 19.6 10.19 12 -999
2009-08-21 07:28:50 51°19.464 2°52.982 19.6 10.19 12 -999
2009-08-21 07:29:00 51°19.491 2°52.992 18.5 10.09 13 -999
2009-08-21 07:29:10 51°19.519 2°53.003 18.5 10.09 13 -999
2009-08-21 07:29:20 51°19.546 2°53.013 18.5 10.09 13 -999
2009-08-21 07:29:30 51°19.573 2°53.025 18.5 10.09 13 -999
2009-08-21 07:29:40 51°19.598 2°53.034 18.5 10.09 13 -999
2009-08-21 07:29:50 51°19.624 2°53.048 18.5 10.09 13 -999
2009-08-21 07:30:00 51°19.651 2°53.062 21.8 10.09 18 -999
2009-08-21 07:30:10 51°19.677 2°53.077 21.8 10.09 18 -999
2009-08-21 07:30:20 51°19.704 2°53.09 21.8 10.09 18 -999
2009-08-21 07:30:30 51°19.731 2°53.103 21.8 10.09 18 -999
2009-08-21 07:30:40 51°19.758 2°53.115 21.8 10.09 18 -999
2009-08-21 07:30:50 51°19.785 2°53.127 21.8 10.09 18 -999
2009-08-21 07:31:00 51°19.812 2°53.136 19.6 10 12 -999
2009-08-21 07:31:10 51°19.839 2°53.148 19.6 10 12 -999
2009-08-21 07:31:20 51°19.866 2°53.16 19.6 10 12 -999
2009-08-21 07:31:30 51°19.893 2°53.172 19.6 10 12 -999
2009-08-21 07:31:40 51°19.92 2°53.186 19.6 10 12 -999
2009-08-21 07:31:50 51°19.946 2°53.2 19.6 10 12 -999
2009-08-21 07:32:00 51°19.972 2°53.214 24.6 10 16 -999
2009-08-21 07:32:10 51°19.998 2°53.228 24.6 10 16 -999
2009-08-21 07:32:20 51°20.024 2°53.243 24.6 10 16 -999
2009-08-21 07:32:30 51°20.053 2°53.26 24.6 10 16 -999
2009-08-21 07:32:40 51°20.079 2°53.275 24.6 10 16 -999
2009-08-21 07:32:50 51°20.102 2°53.289 24.6 10 16 -999
2009-08-21 07:33:00 51°20.131 2°53.304 24.1 9.9 21 -999
2009-08-21 07:33:10 51°20.157 2°53.318 24.1 9.9 21 -999
2009-08-21 07:33:20 51°20.183 2°53.333 24.1 9.9 21 -999
2009-08-21 07:33:30 51°20.209 2°53.347 24.1 9.9 21 -999
2009-08-21 07:33:40 51°20.235 2°53.361 24.1 9.9 21 -999
2009-08-21 07:33:50 51°20.261 2°53.375 24.1 9.9 21 -999
2009-08-21 07:34:00 51°20.288 2°53.389 24.6 10.09 17 -999
2009-08-21 07:34:10 51°20.314 2°53.405 24.6 10.09 17 -999
2009-08-21 07:34:20 51°20.34 2°53.419 24.6 10.09 17 -999
2009-08-21 07:34:30 51°20.366 2°53.433 24.6 10.09 17 -999
2009-08-21 07:34:40 51°20.393 2°53.446 24.6 10.09 17 -999
2009-08-21 07:34:50 51°20.416 2°53.459 24.6 10.09 17 -999
2009-08-21 07:35:00 51°20.443 2°53.473 24 10 19 -999
2009-08-21 07:35:10 51°20.469 2°53.485 24 10 19 -999
2009-08-21 07:35:20 51°20.495 2°53.499 24 10 19 -999
2009-08-21 07:35:30 51°20.521 2°53.513 24 10 19 -999
2009-08-21 07:35:40 51°20.548 2°53.527 24 10 19 -999
2009-08-21 07:35:50 51°20.574 2°53.54 24 10 19 -999
2009-08-21 07:36:00 51°20.6 2°53.555 25.5 9.9 17 -999
2009-08-21 07:36:10 51°20.625 2°53.57 25.5 9.9 17 -999
2009-08-21 07:36:20 51°20.654 2°53.586 25.5 9.9 17 -999
2009-08-21 07:36:30 51°20.677 2°53.598 25.5 9.9 17 -999
2009-08-21 07:36:40 51°20.703 2°53.612 25.5 9.9 17 -999
2009-08-21 07:36:50 51°20.73 2°53.625 25.5 9.9 17 -999
2009-08-21 07:37:00 51°20.756 2°53.639 25.5 10 16 -999
2009-08-21 07:37:10 51°20.785 2°53.654 25.5 10 16 -999
2009-08-21 07:37:20 51°20.811 2°53.669 25.5 10 16 -999
2009-08-21 07:37:30 51°20.837 2°53.682 25.5 10 16 -999
2009-08-21 07:37:40 51°20.863 2°53.696 25.5 10 16 -999
2009-08-21 07:37:50 51°20.889 2°53.709 25.5 10 16 -999
2009-08-21 07:38:00 51°20.915 2°53.723 23 9.8 19 -999
2009-08-21 07:38:10 51°20.942 2°53.735 23 9.8 19 -999
2009-08-21 07:38:20 51°20.968 2°53.747 23 9.8 19 -999
2009-08-21 07:38:30 51°20.994 2°53.761 23 9.8 19 -999
2009-08-21 07:38:40 51°21.02 2°53.775 23 9.8 19 -999
2009-08-21 07:38:50 51°21.046 2°53.789 23 9.8 19 -999
2009-08-21 07:39:00 51°21.071 2°53.802 24.3 9.8 19 -999
2009-08-21 07:39:10 51°21.097 2°53.816 24.3 9.8 19 -999
2009-08-21 07:39:20 51°21.123 2°53.83 24.3 9.8 19 -999
2009-08-21 07:39:30 51°21.15 2°53.842 24.3 9.8 19 -999
2009-08-21 07:39:40 51°21.176 2°53.855 24.3 9.8 19 -999
2009-08-21 07:39:50 51°21.202 2°53.869 24.3 9.8 19 -999
2009-08-21 07:40:00 51°21.228 2°53.882 24.3 9.9 17 -999
2009-08-21 07:40:10 51°21.254 2°53.895 24.3 9.9 17 -999
2009-08-21 07:40:20 51°21.28 2°53.909 24.3 9.9 17 -999
2009-08-21 07:40:30 51°21.306 2°53.923 24.3 9.9 17 -999
2009-08-21 07:40:40 51°21.333 2°53.935 24.3 9.9 17 -999
2009-08-21 07:40:50 51°21.359 2°53.947 24.3 9.9 17 -999
2009-08-21 07:41:00 51°21.385 2°53.96 24.3 9.9 18 -999
2009-08-21 07:41:10 51°21.411 2°53.974 24.3 9.9 18 -999
2009-08-21 07:41:20 51°21.438 2°53.988 24.3 9.9 18 -999
2009-08-21 07:41:30 51°21.464 2°54 24.3 9.9 18 -999
2009-08-21 07:41:40 51°21.491 2°54.013 24.3 9.9 18 -999
2009-08-21 07:41:50 51°21.516 2°54.028 24.3 9.9 18 -999
2009-08-21 07:42:00 51°21.539 2°54.051 31.1 9.5 34 -999
2009-08-21 07:42:10 51°21.557 2°54.074 31.1 9.5 34 -999
2009-08-21 07:42:20 51°21.578 2°54.1 31.1 9.5 34 -999
2009-08-21 07:42:30 51°21.599 2°54.126 31.1 9.5 34 -999
2009-08-21 07:42:40 51°21.618 2°54.155 31.1 9.5 34 -999
2009-08-21 07:42:50 51°21.639 2°54.179 31.1 9.5 34 -999
2009-08-21 07:43:00 51°21.66 2°54.204 43.1 9.5 30 -999
2009-08-21 07:43:10 51°21.681 2°54.23 43.1 9.5 30 -999
2009-08-21 07:43:20 51°21.701 2°54.256 43.1 9.5 30 -999
2009-08-21 07:43:30 51°21.722 2°54.282 43.1 9.5 30 -999
2009-08-21 07:43:40 51°21.742 2°54.309 43.1 9.5 30 -999
2009-08-21 07:43:50 51°21.763 2°54.336 43.1 9.5 30 -999
2009-08-21 07:44:00 51°21.785 2°54.361 43.1 9.59 39 -999
2009-08-21 07:44:10 51°21.805 2°54.388 43.1 9.59 39 -999
2009-08-21 07:44:20 51°21.826 2°54.415 43.1 9.59 39 -999
2009-08-21 07:44:30 51°21.846 2°54.443 43.1 9.59 39 -999
2009-08-21 07:44:40 51°21.866 2°54.472 43.1 9.59 39 -999
2009-08-21 07:44:50 51°21.887 2°54.499 43.1 9.59 39 -999
2009-08-21 07:45:00 51°21.907 2°54.526 45.8 9.59 36 -999
2009-08-21 07:45:10 51°21.929 2°54.557 45.8 9.59 36 -999
2009-08-21 07:45:20 51°21.948 2°54.587 45.8 9.59 36 -999
2009-08-21 07:45:30 51°21.967 2°54.616 45.8 9.59 36 -999
2009-08-21 07:45:40 51°21.986 2°54.645 45.8 9.59 36 -999
2009-08-21 07:45:50 51°22.006 2°54.673 45.8 9.59 36 -999
2009-08-21 07:46:00 51°22.024 2°54.704 47.3 9.59 48 -999
2009-08-21 07:46:10 51°22.042 2°54.734 47.3 9.59 48 -999
2009-08-21 07:46:20 51°22.062 2°54.763 47.3 9.59 48 -999
2009-08-21 07:46:30 51°22.081 2°54.793 47.3 9.59 48 -999
2009-08-21 07:46:40 51°22.1 2°54.823 47.3 9.59 48 -999
2009-08-21 07:46:50 51°22.118 2°54.854 47.3 9.59 48 -999
2009-08-21 07:47:00 51°22.136 2°54.885 48.7 9.59 52 -999
2009-08-21 07:47:10 51°22.155 2°54.915 48.7 9.59 52 -999
2009-08-21 07:47:20 51°22.174 2°54.945 48.7 9.59 52 -999
2009-08-21 07:47:30 51°22.194 2°54.972 48.7 9.59 52 -999
2009-08-21 07:47:40 51°22.215 2°54.996 48.7 9.59 52 -999
2009-08-21 07:47:50 51°22.238 2°55.017 48.7 9.59 52 -999
2009-08-21 07:48:00 51°22.261 2°55.04 36.6 9.5 32 -999
2009-08-21 07:48:10 51°22.283 2°55.057 36.6 9.5 32 -999
2009-08-21 07:48:20 51°22.307 2°55.075 36.6 9.5 32 -999
2009-08-21 07:48:30 51°22.332 2°55.09 36.6 9.5 32 -999
2009-08-21 07:48:40 51°22.358 2°55.104 36.6 9.5 32 -999
2009-08-21 07:48:50 51°22.386 2°55.122 36.6 9.5 32 -999
2009-08-21 07:49:00 51°22.412 2°55.136 26.1 9.8 23 -999
2009-08-21 07:49:10 51°22.438 2°55.149 26.1 9.8 23 -999
2009-08-21 07:49:20 51°22.464 2°55.161 26.1 9.8 23 -999
2009-08-21 07:49:30 51°22.491 2°55.171 26.1 9.8 23 -999
2009-08-21 07:49:40 51°22.517 2°55.181 26.1 9.8 23 -999
2009-08-21 07:49:50 51°22.544 2°55.188 26.1 9.8 23 -999
2009-08-21 07:50:00 51°22.571 2°55.194 19.3 9.9 8 -999
2009-08-21 07:50:10 51°22.598 2°55.201 19.3 9.9 8 -999
2009-08-21 07:50:20 51°22.626 2°55.207 19.3 9.9 8 -999
2009-08-21 07:50:30 51°22.653 2°55.213 19.3 9.9 8 -999
2009-08-21 07:50:40 51°22.681 2°55.219 19.3 9.9 8 -999
2009-08-21 07:50:50 51°22.708 2°55.228 19.3 9.9 8 -999
2009-08-21 07:51:00 51°22.736 2°55.236 17.5 10 14 -999
2009-08-21 07:51:10 51°22.763 2°55.243 17.5 10 14 -999
2009-08-21 07:51:20 51°22.791 2°55.252 17.5 10 14 -999
2009-08-21 07:51:30 51°22.818 2°55.261 17.5 10 14 -999
2009-08-21 07:51:40 51°22.845 2°55.269 17.5 10 14 -999
2009-08-21 07:51:50 51°22.872 2°55.279 17.5 10 14 -999
2009-08-21 07:52:00 51°22.899 2°55.286 17.6 9.9 13 -999
2009-08-21 07:52:10 51°22.927 2°55.293 17.6 9.9 13 -999
2009-08-21 07:52:20 51°22.953 2°55.303 17.6 9.9 13 -999
2009-08-21 07:52:30 51°22.98 2°55.313 17.6 9.9 13 -999
2009-08-21 07:52:40 51°23.006 2°55.324 17.6 9.9 13 -999
2009-08-21 07:52:50 51°23.03 2°55.333 17.6 9.9 13 -999
2009-08-21 07:53:00 51°23.057 2°55.342 18.8 9.9 16 -999
2009-08-21 07:53:10 51°23.087 2°55.352 18.8 9.9 16 -999
2009-08-21 07:53:20 51°23.114 2°55.362 18.8 9.9 16 -999
2009-08-21 07:53:30 51°23.14 2°55.373 18.8 9.9 16 -999
2009-08-21 07:53:40 51°23.167 2°55.384 18.8 9.9 16 -999
2009-08-21 07:53:50 51°23.194 2°55.396 18.8 9.9 16 -999
2009-08-21 07:54:00 51°23.22 2°55.407 20.5 10 19 -999
2009-08-21 07:54:10 51°23.244 2°55.417 20.5 10 19 -999
2009-08-21 07:54:20 51°23.274 2°55.43 20.5 10 19 -999
2009-08-21 07:54:30 51°23.298 2°55.439 20.5 10 19 -999
2009-08-21 07:54:40 51°23.324 2°55.45 20.5 10 19 -999
2009-08-21 07:54:50 51°23.351 2°55.461 20.5 10 19 -999
2009-08-21 07:55:00 51°23.377 2°55.471 21.8 9.9 13 -999
2009-08-21 07:55:10 51°23.403 2°55.48 21.8 9.9 13 -999
2009-08-21 07:55:20 51°23.43 2°55.493 21.8 9.9 13 -999
2009-08-21 07:55:30 51°23.456 2°55.504 21.8 9.9 13 -999
2009-08-21 07:55:40 51°23.482 2°55.515 21.8 9.9 13 -999
2009-08-21 07:55:50 51°23.509 2°55.526 21.8 9.9 13 -999
2009-08-21 07:56:00 51°23.535 2°55.537 20.3 9.8 19 -999
2009-08-21 07:56:10 51°23.561 2°55.549 20.3 9.8 19 -999
2009-08-21 07:56:20 51°23.588 2°55.558 20.3 9.8 19 -999
2009-08-21 07:56:30 51°23.614 2°55.569 20.3 9.8 19 -999
2009-08-21 07:56:40 51°23.641 2°55.581 20.3 9.8 19 -999
2009-08-21 07:56:50 51°23.667 2°55.591 20.3 9.8 19 -999
2009-08-21 07:57:00 51°23.694 2°55.603 20.8 9.9 15 -999
2009-08-21 07:57:10 51°23.723 2°55.617 20.8 9.9 15 -999
2009-08-21 07:57:20 51°23.749 2°55.628 20.8 9.9 15 -999
2009-08-21 07:57:30 51°23.775 2°55.641 20.8 9.9 15 -999
2009-08-21 07:57:40 51°23.801 2°55.653 20.8 9.9 15 -999
2009-08-21 07:57:50 51°23.826 2°55.667 20.8 9.9 15 -999
2009-08-21 07:58:00 51°23.852 2°55.68 24.3 9.8 15 -999
2009-08-21 07:58:10 51°23.877 2°55.694 24.3 9.8 15 -999
2009-08-21 07:58:20 51°23.903 2°55.709 24.3 9.8 15 -999
2009-08-21 07:58:30 51°23.928 2°55.723 24.3 9.8 15 -999
2009-08-21 07:58:40 51°23.954 2°55.736 24.3 9.8 15 -999
2009-08-21 07:58:50 51°23.98 2°55.75 24.3 9.8 15 -999
2009-08-21 07:59:00 51°24.006 2°55.764 25.5 9.8 19 -999
2009-08-21 07:59:10 51°24.031 2°55.779 25.5 9.8 19 -999
2009-08-21 07:59:20 51°24.058 2°55.792 25.5 9.8 19 -999
2009-08-21 07:59:30 51°24.084 2°55.806 25.5 9.8 19 -999
2009-08-21 07:59:40 51°24.11 2°55.818 25.5 9.8 19 -999
2009-08-21 07:59:50 51°24.135 2°55.831 25.5 9.8 19 -999
2009-08-21 08:00:00 51°24.161 2°55.846 24.1 9.9 18 -999
2009-08-21 08:00:10 51°24.188 2°55.858 24.1 9.9 18 -999
2009-08-21 08:00:20 51°24.211 2°55.869 24.1 9.9 18 -999
2009-08-21 08:00:30 51°24.237 2°55.883 24.1 9.9 18 -999
2009-08-21 08:00:40 51°24.263 2°55.896 24.1 9.9 18 -999
2009-08-21 08:00:50 51°24.289 2°55.91 24.1 9.9 18 -999
2009-08-21 08:01:00 51°24.315 2°55.923 24.8 9.9 21 -999
2009-08-21 08:01:10 51°24.344 2°55.939 24.8 9.9 21 -999
2009-08-21 08:01:20 51°24.37 2°55.95 24.8 9.9 21 -999
2009-08-21 08:01:30 51°24.397 2°55.961 24.8 9.9 21 -999
2009-08-21 08:01:40 51°24.423 2°55.973 24.8 9.9 21 -999
2009-08-21 08:01:50 51°24.45 2°55.986 24.8 9.9 21 -999
2009-08-21 08:02:00 51°24.476 2°55.998 22.6 9.9 17 -999
2009-08-21 08:02:10 51°24.503 2°56.009 22.6 9.9 17 -999
2009-08-21 08:02:20 51°24.53 2°56.019 22.6 9.9 17 -999
2009-08-21 08:02:30 51°24.557 2°56.031 22.6 9.9 17 -999
2009-08-21 08:02:40 51°24.583 2°56.042 22.6 9.9 17 -999
2009-08-21 08:02:50 51°24.61 2°56.053 22.6 9.9 17 -999
2009-08-21 08:03:00 51°24.637 2°56.064 21.3 9.9 17 -999
2009-08-21 08:03:10 51°24.663 2°56.074 21.3 9.9 17 -999
2009-08-21 08:03:20 51°24.691 2°56.085 21.3 9.9 17 -999
2009-08-21 08:03:30 51°24.718 2°56.097 21.3 9.9 17 -999
2009-08-21 08:03:40 51°24.744 2°56.109 21.3 9.9 17 -999
2009-08-21 08:03:50 51°24.772 2°56.119 21.3 9.9 17 -999
2009-08-21 08:04:00 51°24.799 2°56.131 23.1 10.09 13 -999
2009-08-21 08:04:10 51°24.826 2°56.142 23.1 10.09 13 -999
2009-08-21 08:04:20 51°24.853 2°56.154 23.1 10.09 13 -999
2009-08-21 08:04:30 51°24.88 2°56.166 23.1 10.09 13 -999
2009-08-21 08:04:40 51°24.907 2°56.176 23.1 10.09 13 -999
2009-08-21 08:04:50 51°24.934 2°56.186 23.1 10.09 13 -999
2009-08-21 08:05:00 51°24.961 2°56.198 23.8 9.9 11 -999
2009-08-21 08:05:10 51°24.987 2°56.21 23.8 9.9 11 -999
2009-08-21 08:05:20 51°25.013 2°56.223 23.8 9.9 11 -999
2009-08-21 08:05:30 51°25.038 2°56.234 23.8 9.9 11 -999
2009-08-21 08:05:40 51°25.064 2°56.245 23.8 9.9 11 -999
2009-08-21 08:05:50 51°25.091 2°56.256 23.8 9.9 11 -999
2009-08-21 08:06:00 51°25.117 2°56.268 23.3 9.9 15 -999
2009-08-21 08:06:10 51°25.141 2°56.279 23.3 9.9 15 -999
2009-08-21 08:06:20 51°25.167 2°56.29 23.3 9.9 15 -999
2009-08-21 08:06:30 51°25.194 2°56.302 23.3 9.9 15 -999
2009-08-21 08:06:40 51°25.219 2°56.313 23.3 9.9 15 -999
2009-08-21 08:06:50 51°25.241 2°56.322 23.3 9.9 15 -999
2009-08-21 08:07:00 51°25.26 2°56.329 21 7.09 12 -999
2009-08-21 08:07:10 51°25.28 2°56.337 21 7.09 12 -999
2009-08-21 08:07:20 51°25.302 2°56.346 21 7.09 12 -999
2009-08-21 08:07:30 51°25.327 2°56.357 21 7.09 12 -999
2009-08-21 08:07:40 51°25.352 2°56.369 21 7.09 12 -999
2009-08-21 08:07:50 51°25.378 2°56.382 21 7.09 12 -999
2009-08-21 08:08:00 51°25.404 2°56.394 23.3 9.8 17 -999
2009-08-21 08:08:10 51°25.43 2°56.408 23.3 9.8 17 -999
2009-08-21 08:08:20 51°25.456 2°56.421 23.3 9.8 17 -999
2009-08-21 08:08:30 51°25.484 2°56.433 23.3 9.8 17 -999
2009-08-21 08:08:40 51°25.509 2°56.447 23.3 9.8 17 -999
2009-08-21 08:08:50 51°25.535 2°56.461 23.3 9.8 17 -999
2009-08-21 08:09:00 51°25.562 2°56.472 21.8 9.9 20 -999
2009-08-21 08:09:10 51°25.589 2°56.483 21.8 9.9 20 -999
2009-08-21 08:09:20 51°25.616 2°56.493 21.8 9.9 20 -999
2009-08-21 08:09:30 51°25.645 2°56.507 21.8 9.9 20 -999
2009-08-21 08:09:40 51°25.672 2°56.518 21.8 9.9 20 -999
2009-08-21 08:09:50 51°25.697 2°56.528 21.8 9.9 20 -999
2009-08-21 08:10:00 51°25.724 2°56.538 19 10 14 -999
2009-08-21 08:10:10 51°25.753 2°56.551 19 10 14 -999
2009-08-21 08:10:20 51°25.78 2°56.562 19 10 14 -999
2009-08-21 08:10:30 51°25.807 2°56.574 19 10 14 -999
2009-08-21 08:10:40 51°25.833 2°56.584 19 10 14 -999
2009-08-21 08:10:50 51°25.86 2°56.594 19 10 14 -999
2009-08-21 08:11:00 51°25.887 2°56.606 18.6 10.09 16 -999
2009-08-21 08:11:10 51°25.914 2°56.617 18.6 10.09 16 -999
2009-08-21 08:11:20 51°25.941 2°56.628 18.6 10.09 16 -999
2009-08-21 08:11:30 51°25.968 2°56.639 18.6 10.09 16 -999
2009-08-21 08:11:40 51°25.995 2°56.649 18.6 10.09 16 -999
2009-08-21 08:11:50 51°26.022 2°56.658 18.6 10.09 16 -999
2009-08-21 08:12:00 51°26.049 2°56.668 19.1 9.8 10 -999
2009-08-21 08:12:10 51°26.075 2°56.679 19.1 9.8 10 -999
2009-08-21 08:12:20 51°26.102 2°56.69 19.1 9.8 10 -999
2009-08-21 08:12:30 51°26.125 2°56.699 19.1 9.8 10 -999
2009-08-21 08:12:40 51°26.152 2°56.709 19.1 9.8 10 -999
2009-08-21 08:12:50 51°26.179 2°56.719 19.1 9.8 10 -999
2009-08-21 08:13:00 51°26.206 2°56.73 19.3 9.9 11 -999
2009-08-21 08:13:10 51°26.232 2°56.741 19.3 9.9 11 -999
2009-08-21 08:13:20 51°26.259 2°56.752 19.3 9.9 11 -999
2009-08-21 08:13:30 51°26.286 2°56.763 19.3 9.9 11 -999
2009-08-21 08:13:40 51°26.312 2°56.773 19.3 9.9 11 -999
2009-08-21 08:13:50 51°26.339 2°56.785 19.3 9.9 11 -999
2009-08-21 08:14:00 51°26.366 2°56.795 18.3 10.09 16 -999
2009-08-21 08:14:10 51°26.396 2°56.807 18.3 10.09 16 -999
2009-08-21 08:14:20 51°26.42 2°56.816 18.3 10.09 16 -999
2009-08-21 08:14:30 51°26.449 2°56.828 18.3 10.09 16 -999
2009-08-21 08:14:40 51°26.473 2°56.839 18.3 10.09 16 -999
2009-08-21 08:14:50 51°26.502 2°56.85 18.3 10.09 16 -999
2009-08-21 08:15:00 51°26.528 2°56.859 20.8 9.8 10 -999
2009-08-21 08:15:10 51°26.554 2°56.87 20.8 9.8 10 -999
2009-08-21 08:15:20 51°26.581 2°56.88 20.8 9.8 10 -999
2009-08-21 08:15:30 51°26.607 2°56.891 20.8 9.8 10 -999
2009-08-21 08:15:40 51°26.634 2°56.9 20.8 9.8 10 -999
2009-08-21 08:15:50 51°26.66 2°56.91 20.8 9.8 10 -999
2009-08-21 08:16:00 51°26.688 2°56.918 18.3 9.9 9 -999
2009-08-21 08:16:10 51°26.714 2°56.928 18.3 9.9 9 -999
2009-08-21 08:16:20 51°26.74 2°56.938 18.3 9.9 9 -999
2009-08-21 08:16:30 51°26.767 2°56.947 18.3 9.9 9 -999
2009-08-21 08:16:40 51°26.794 2°56.955 18.3 9.9 9 -999
2009-08-21 08:16:50 51°26.82 2°56.965 18.3 9.9 9 -999
2009-08-21 08:17:00 51°26.847 2°56.974 18.6 9.69 14 -999
2009-08-21 08:17:10 51°26.873 2°56.982 18.6 9.69 14 -999
2009-08-21 08:17:20 51°26.899 2°56.988 18.6 9.69 14 -999
2009-08-21 08:17:30 51°26.926 2°56.996 18.6 9.69 14 -999
2009-08-21 08:17:40 51°26.952 2°57.005 18.6 9.69 14 -999
2009-08-21 08:17:50 51°26.978 2°57.011 18.6 9.69 14 -999
2009-08-21 08:18:00 51°27.003 2°57.022 21.8 9.4 10 -999
2009-08-21 08:18:10 51°27.028 2°57.033 21.8 9.4 10 -999
2009-08-21 08:18:20 51°27.054 2°57.041 21.8 9.4 10 -999
2009-08-21 08:18:30 51°27.08 2°57.05 21.8 9.4 10 -999
2009-08-21 08:18:40 51°27.105 2°57.058 21.8 9.4 10 -999
2009-08-21 08:18:50 51°27.131 2°57.067 21.8 9.4 10 -999
2009-08-21 08:19:00 51°27.157 2°57.076 20.1 9.59 11 -999
2009-08-21 08:19:10 51°27.18 2°57.085 20.1 9.59 11 -999
2009-08-21 08:19:20 51°27.21 2°57.093 20.1 9.59 11 -999
2009-08-21 08:19:30 51°27.236 2°57.1 20.1 9.59 11 -999
2009-08-21 08:19:40 51°27.262 2°57.111 20.1 9.59 11 -999
2009-08-21 08:19:50 51°27.288 2°57.119 20.1 9.59 11 -999
2009-08-21 08:20:00 51°27.315 2°57.125 18.1 9.69 8 -999
2009-08-21 08:20:10 51°27.341 2°57.132 18.1 9.69 8 -999
2009-08-21 08:20:20 51°27.368 2°57.14 18.1 9.69 8 -999
2009-08-21 08:20:30 51°27.395 2°57.149 18.1 9.69 8 -999
2009-08-21 08:20:40 51°27.422 2°57.157 18.1 9.69 8 -999
2009-08-21 08:20:50 51°27.448 2°57.166 18.1 9.69 8 -999
2009-08-21 08:21:00 51°27.476 2°57.175 19.3 10.09 14 -999
2009-08-21 08:21:10 51°27.503 2°57.184 19.3 10.09 14 -999
2009-08-21 08:21:20 51°27.53 2°57.193 19.3 10.09 14 -999
2009-08-21 08:21:30 51°27.558 2°57.202 19.3 10.09 14 -999
2009-08-21 08:21:40 51°27.584 2°57.212 19.3 10.09 14 -999
2009-08-21 08:21:50 51°27.611 2°57.218 19.3 10.09 14 -999
2009-08-21 08:22:00 51°27.639 2°57.225 19 10 9 -999
2009-08-21 08:22:10 51°27.663 2°57.234 19 10 9 -999
2009-08-21 08:22:20 51°27.691 2°57.243 19 10 9 -999
2009-08-21 08:22:30 51°27.718 2°57.251 19 10 9 -999
2009-08-21 08:22:40 51°27.748 2°57.26 19 10 9 -999
2009-08-21 08:22:50 51°27.772 2°57.268 19 10 9 -999
2009-08-21 08:23:00 51°27.799 2°57.276 19.3 9.9 10 -999
2009-08-21 08:23:10 51°27.826 2°57.285 19.3 9.9 10 -999
2009-08-21 08:23:20 51°27.853 2°57.296 19.3 9.9 10 -999
2009-08-21 08:23:30 51°27.88 2°57.304 19.3 9.9 10 -999
2009-08-21 08:23:40 51°27.908 2°57.312 19.3 9.9 10 -999
2009-08-21 08:23:50 51°27.935 2°57.321 19.3 9.9 10 -999
2009-08-21 08:24:00 51°27.962 2°57.33 18.6 10.09 12 -999
2009-08-21 08:24:10 51°27.989 2°57.34 18.6 10.09 12 -999
2009-08-21 08:24:20 51°28.017 2°57.348 18.6 10.09 12 -999
2009-08-21 08:24:30 51°28.044 2°57.355 18.6 10.09 12 -999
2009-08-21 08:24:40 51°28.071 2°57.365 18.6 10.09 12 -999
2009-08-21 08:24:50 51°28.098 2°57.375 18.6 10.09 12 -999
2009-08-21 08:25:00 51°28.125 2°57.383 19.1 10 13 -999
2009-08-21 08:25:10 51°28.155 2°57.393 19.1 10 13 -999
2009-08-21 08:25:20 51°28.182 2°57.403 19.1 10 13 -999
2009-08-21 08:25:30 51°28.209 2°57.41 19.1 10 13 -999
2009-08-21 08:25:40 51°28.236 2°57.417 19.1 10 13 -999
2009-08-21 08:25:50 51°28.263 2°57.425 19.1 10 13 -999
2009-08-21 08:26:00 51°28.29 2°57.432 18.8 9.9 8 -999
2009-08-21 08:26:10 51°28.317 2°57.438 18.8 9.9 8 -999
2009-08-21 08:26:20 51°28.343 2°57.448 18.8 9.9 8 -999
2009-08-21 08:26:30 51°28.37 2°57.457 18.8 9.9 8 -999
2009-08-21 08:26:40 51°28.397 2°57.466 18.8 9.9 8 -999
2009-08-21 08:26:50 51°28.424 2°57.475 18.8 9.9 8 -999
2009-08-21 08:27:00 51°28.451 2°57.484 19.8 9.69 14 -999
2009-08-21 08:27:10 51°28.477 2°57.493 19.8 9.69 14 -999
2009-08-21 08:27:20 51°28.503 2°57.502 19.8 9.69 14 -999
2009-08-21 08:27:30 51°28.53 2°57.51 19.8 9.69 14 -999
2009-08-21 08:27:40 51°28.557 2°57.518 19.8 9.69 14 -999
2009-08-21 08:27:50 51°28.583 2°57.527 19.8 9.69 14 -999
2009-08-21 08:28:00 51°28.61 2°57.537 21 9.8 15 -999
2009-08-21 08:28:10 51°28.636 2°57.548 21 9.8 15 -999
2009-08-21 08:28:20 51°28.662 2°57.557 21 9.8 15 -999
2009-08-21 08:28:30 51°28.689 2°57.567 21 9.8 15 -999
2009-08-21 08:28:40 51°28.716 2°57.577 21 9.8 15 -999
2009-08-21 08:28:50 51°28.742 2°57.586 21 9.8 15 -999
2009-08-21 08:29:00 51°28.769 2°57.596 21.8 9.8 12 -999
2009-08-21 08:29:10 51°28.795 2°57.608 21.8 9.8 12 -999
2009-08-21 08:29:20 51°28.821 2°57.618 21.8 9.8 12 -999
2009-08-21 08:29:30 51°28.848 2°57.629 21.8 9.8 12 -999
2009-08-21 08:29:40 51°28.874 2°57.639 21.8 9.8 12 -999
2009-08-21 08:29:50 51°28.9 2°57.652 21.8 9.8 12 -999
2009-08-21 08:30:00 51°28.926 2°57.665 23.8 9.8 20 -999
2009-08-21 08:30:10 51°28.95 2°57.675 23.8 9.8 20 -999
2009-08-21 08:30:20 51°28.976 2°57.686 23.8 9.8 20 -999
2009-08-21 08:30:30 51°29.002 2°57.698 23.8 9.8 20 -999
2009-08-21 08:30:40 51°29.028 2°57.71 23.8 9.8 20 -999
2009-08-21 08:30:50 51°29.055 2°57.72 23.8 9.8 20 -999
2009-08-21 08:31:00 51°29.081 2°57.732 23.6 9.69 12 -999
2009-08-21 08:31:10 51°29.106 2°57.745 23.6 9.69 12 -999
2009-08-21 08:31:20 51°29.133 2°57.754 23.6 9.69 12 -999
2009-08-21 08:31:30 51°29.159 2°57.764 23.6 9.69 12 -999
2009-08-21 08:31:40 51°29.185 2°57.775 23.6 9.69 12 -999
2009-08-21 08:31:50 51°29.211 2°57.788 23.6 9.69 12 -999
2009-08-21 08:32:00 51°29.237 2°57.798 21.1 9.69 17 -999
2009-08-21 08:32:10 51°29.263 2°57.807 21.1 9.69 17 -999
2009-08-21 08:32:20 51°29.289 2°57.818 21.1 9.69 17 -999
2009-08-21 08:32:30 51°29.315 2°57.83 21.1 9.69 17 -999
2009-08-21 08:32:40 51°29.341 2°57.843 21.1 9.69 17 -999
2009-08-21 08:32:50 51°29.367 2°57.854 21.1 9.69 17 -999
2009-08-21 08:33:00 51°29.394 2°57.863 22.6 9.8 16 -999
2009-08-21 08:33:10 51°29.423 2°57.876 22.6 9.8 16 -999
2009-08-21 08:33:20 51°29.449 2°57.888 22.6 9.8 16 -999
2009-08-21 08:33:30 51°29.475 2°57.899 22.6 9.8 16 -999
2009-08-21 08:33:40 51°29.499 2°57.909 22.6 9.8 16 -999
2009-08-21 08:33:50 51°29.528 2°57.922 22.6 9.8 16 -999
2009-08-21 08:34:00 51°29.554 2°57.935 24.5 9.69 17 -999
2009-08-21 08:34:10 51°29.58 2°57.946 24.5 9.69 17 -999
2009-08-21 08:34:20 51°29.606 2°57.958 24.5 9.69 17 -999
2009-08-21 08:34:30 51°29.632 2°57.971 24.5 9.69 17 -999
2009-08-21 08:34:40 51°29.659 2°57.983 24.5 9.69 17 -999
2009-08-21 08:34:50 51°29.685 2°57.995 24.5 9.69 17 -999
2009-08-21 08:35:00 51°29.711 2°58.007 23.8 9.9 18 -999
2009-08-21 08:35:10 51°29.738 2°58.018 23.8 9.9 18 -999
2009-08-21 08:35:20 51°29.764 2°58.029 23.8 9.9 18 -999
2009-08-21 08:35:30 51°29.791 2°58.041 23.8 9.9 18 -999
2009-08-21 08:35:40 51°29.817 2°58.054 23.8 9.9 18 -999
2009-08-21 08:35:50 51°29.844 2°58.065 23.8 9.9 18 -999
2009-08-21 08:36:00 51°29.871 2°58.076 23.6 10 13 -999
2009-08-21 08:36:10 51°29.897 2°58.089 23.6 10 13 -999
2009-08-21 08:36:20 51°29.923 2°58.1 23.6 10 13 -999
2009-08-21 08:36:30 51°29.95 2°58.11 23.6 10 13 -999
2009-08-21 08:36:40 51°29.977 2°58.121 23.6 10 13 -999
2009-08-21 08:36:50 51°30.003 2°58.133 23.6 10 13 -999
2009-08-21 08:37:00 51°30.03 2°58.143 22.3 9.9 15 -999
2009-08-21 08:37:10 51°30.057 2°58.154 22.3 9.9 15 -999
2009-08-21 08:37:20 51°30.083 2°58.166 22.3 9.9 15 -999
2009-08-21 08:37:30 51°30.11 2°58.176 22.3 9.9 15 -999
2009-08-21 08:37:40 51°30.137 2°58.188 22.3 9.9 15 -999
2009-08-21 08:37:50 51°30.164 2°58.2 22.3 9.9 15 -999
2009-08-21 08:38:00 51°30.191 2°58.211 23.1 10.09 14 -999
2009-08-21 08:38:10 51°30.216 2°58.222 23.1 10.09 14 -999
2009-08-21 08:38:20 51°30.242 2°58.236 23.1 10.09 14 -999
2009-08-21 08:38:30 51°30.269 2°58.25 23.1 10.09 14 -999
2009-08-21 08:38:40 51°30.296 2°58.261 23.1 10.09 14 -999
2009-08-21 08:38:50 51°30.323 2°58.273 23.1 10.09 14 -999
2009-08-21 08:39:00 51°30.349 2°58.286 23.3 10.09 18 -999
2009-08-21 08:39:10 51°30.376 2°58.299 23.3 10.09 18 -999
2009-08-21 08:39:20 51°30.403 2°58.311 23.3 10.09 18 -999
2009-08-21 08:39:30 51°30.43 2°58.322 23.3 10.09 18 -999
2009-08-21 08:39:40 51°30.457 2°58.334 23.3 10.09 18 -999
2009-08-21 08:39:50 51°30.484 2°58.346 23.3 10.09 18 -999
2009-08-21 08:40:00 51°30.511 2°58.359 22.8 10.09 16 -999
2009-08-21 08:40:10 51°30.538 2°58.37 22.8 10.09 16 -999
2009-08-21 08:40:20 51°30.568 2°58.383 22.8 10.09 16 -999
2009-08-21 08:40:30 51°30.595 2°58.396 22.8 10.09 16 -999
2009-08-21 08:40:40 51°30.622 2°58.41 22.8 10.09 16 -999
2009-08-21 08:40:50 51°30.648 2°58.422 22.8 10.09 16 -999
2009-08-21 08:41:00 51°30.675 2°58.434 25.1 10.09 12 -999
2009-08-21 08:41:10 51°30.702 2°58.445 25.1 10.09 12 -999
2009-08-21 08:41:20 51°30.727 2°58.46 25.1 10.09 12 -999
2009-08-21 08:41:30 51°30.754 2°58.473 25.1 10.09 12 -999
2009-08-21 08:41:40 51°30.78 2°58.487 25.1 10.09 12 -999
2009-08-21 08:41:50 51°30.807 2°58.499 25.1 10.09 12 -999
2009-08-21 08:42:00 51°30.833 2°58.511 23.3 10 17 -999
2009-08-21 08:42:10 51°30.86 2°58.524 23.3 10 17 -999
2009-08-21 08:42:20 51°30.886 2°58.536 23.3 10 17 -999
2009-08-21 08:42:30 51°30.913 2°58.548 23.3 10 17 -999
2009-08-21 08:42:40 51°30.94 2°58.561 23.3 10 17 -999
2009-08-21 08:42:50 51°30.966 2°58.574 23.3 10 17 -999
2009-08-21 08:43:00 51°30.992 2°58.587 22.1 9.8 16 -999
2009-08-21 08:43:10 51°31.018 2°58.599 22.1 9.8 16 -999
2009-08-21 08:43:20 51°31.044 2°58.613 22.1 9.8 16 -999
2009-08-21 08:43:30 51°31.07 2°58.624 22.1 9.8 16 -999
2009-08-21 08:43:40 51°31.096 2°58.637 22.1 9.8 16 -999
2009-08-21 08:43:50 51°31.121 2°58.648 22.1 9.8 16 -999
2009-08-21 08:44:00 51°31.147 2°58.66 22.6 9.69 15 -999
2009-08-21 08:44:10 51°31.173 2°58.672 22.6 9.69 15 -999
2009-08-21 08:44:20 51°31.198 2°58.685 22.6 9.69 15 -999
2009-08-21 08:44:30 51°31.224 2°58.696 22.6 9.69 15 -999
2009-08-21 08:44:40 51°31.25 2°58.709 22.6 9.69 15 -999
2009-08-21 08:44:50 51°31.275 2°58.722 22.6 9.69 15 -999
2009-08-21 08:45:00 51°31.301 2°58.733 23.6 9.59 17 -999
2009-08-21 08:45:10 51°31.324 2°58.743 23.6 9.59 17 -999
2009-08-21 08:45:20 51°31.35 2°58.756 23.6 9.59 17 -999
2009-08-21 08:45:30 51°31.375 2°58.77 23.6 9.59 17 -999
2009-08-21 08:45:40 51°31.401 2°58.781 23.6 9.59 17 -999
2009-08-21 08:45:50 51°31.427 2°58.793 23.6 9.59 17 -999
2009-08-21 08:46:00 51°31.453 2°58.805 23.3 9.69 16 -999
2009-08-21 08:46:10 51°31.479 2°58.817 23.3 9.69 16 -999
2009-08-21 08:46:20 51°31.507 2°58.829 23.3 9.69 16 -999
2009-08-21 08:46:30 51°31.532 2°58.843 23.3 9.69 16 -999
2009-08-21 08:46:40 51°31.558 2°58.856 23.3 9.69 16 -999
2009-08-21 08:46:50 51°31.583 2°58.867 23.3 9.69 16 -999
2009-08-21 08:47:00 51°31.609 2°58.877 23.3 9.59 13 -999
2009-08-21 08:47:10 51°31.634 2°58.889 23.3 9.59 13 -999
2009-08-21 08:47:20 51°31.66 2°58.902 23.3 9.59 13 -999
2009-08-21 08:47:30 51°31.685 2°58.914 23.3 9.59 13 -999
2009-08-21 08:47:40 51°31.711 2°58.925 23.3 9.59 13 -999
2009-08-21 08:47:50 51°31.737 2°58.936 23.3 9.59 13 -999
2009-08-21 08:48:00 51°31.762 2°58.948 24.3 9.69 14 -999
2009-08-21 08:48:10 51°31.788 2°58.961 24.3 9.69 14 -999
2009-08-21 08:48:20 51°31.813 2°58.974 24.3 9.69 14 -999
2009-08-21 08:48:30 51°31.839 2°58.986 24.3 9.69 14 -999
2009-08-21 08:48:40 51°31.864 2°58.998 24.3 9.69 14 -999
2009-08-21 08:48:50 51°31.89 2°59.01 24.3 9.69 14 -999
2009-08-21 08:49:00 51°31.916 2°59.022 22.3 9.69 18 -999
2009-08-21 08:49:10 51°31.942 2°59.034 22.3 9.69 18 -999
2009-08-21 08:49:20 51°31.968 2°59.046 22.3 9.69 18 -999
2009-08-21 08:49:30 51°31.993 2°59.058 22.3 9.69 18 -999
2009-08-21 08:49:40 51°32.019 2°59.071 22.3 9.69 18 -999
2009-08-21 08:49:50 51°32.045 2°59.083 22.3 9.69 18 -999
2009-08-21 08:50:00 51°32.07 2°59.095 22.3 9.5 21 -999
2009-08-21 08:50:10 51°32.096 2°59.107 22.3 9.5 21 -999
2009-08-21 08:50:20 51°32.122 2°59.117 22.3 9.5 21 -999
2009-08-21 08:50:30 51°32.149 2°59.126 22.3 9.5 21 -999
2009-08-21 08:50:40 51°32.175 2°59.135 22.3 9.5 21 -999
2009-08-21 08:50:50 51°32.201 2°59.146 22.3 9.5 21 -999
2009-08-21 08:51:00 51°32.228 2°59.154 21 9.9 10 -999
2009-08-21 08:51:10 51°32.252 2°59.163 21 9.9 10 -999
2009-08-21 08:51:20 51°32.282 2°59.173 21 9.9 10 -999
2009-08-21 08:51:30 51°32.307 2°59.181 21 9.9 10 -999
2009-08-21 08:51:40 51°32.333 2°59.19 21 9.9 10 -999
2009-08-21 08:51:50 51°32.36 2°59.196 21 9.9 10 -999
2009-08-21 08:52:00 51°32.388 2°59.202 18.8 10 6 -999
2009-08-21 08:52:10 51°32.417 2°59.212 18.8 10 6 -999
2009-08-21 08:52:20 51°32.444 2°59.22 18.8 10 6 -999
2009-08-21 08:52:30 51°32.471 2°59.229 18.8 10 6 -999
2009-08-21 08:52:40 51°32.497 2°59.238 18.8 10 6 -999
2009-08-21 08:52:50 51°32.524 2°59.248 18.8 10 6 -999
2009-08-21 08:53:00 51°32.552 2°59.254 18.3 10.09 8 -999
2009-08-21 08:53:10 51°32.58 2°59.259 18.3 10.09 8 -999
2009-08-21 08:53:20 51°32.608 2°59.262 18.3 10.09 8 -999
2009-08-21 08:53:30 51°32.636 2°59.265 18.3 10.09 8 -999
2009-08-21 08:53:40 51°32.665 2°59.266 18.3 10.09 8 -999
2009-08-21 08:53:50 51°32.693 2°59.268 18.3 10.09 8 -999
2009-08-21 08:54:00 51°32.721 2°59.269 5.7 10.09 4 -999
2009-08-21 08:54:10 51°32.749 2°59.264 5.7 10.09 4 -999
2009-08-21 08:54:20 51°32.778 2°59.257 5.7 10.09 4 -999
2009-08-21 08:54:30 51°32.806 2°59.249 5.7 10.09 4 -999
2009-08-21 08:54:40 51°32.834 2°59.24 5.7 10.09 4 -999
2009-08-21 08:54:50 51°32.862 2°59.229 5.7 10.09 4 -999
2009-08-21 08:55:00 51°32.89 2°59.216 352.8 10.5 343 -999
2009-08-21 08:55:10 51°32.918 2°59.204 352.8 10.5 343 -999
2009-08-21 08:55:20 51°32.945 2°59.192 352.8 10.5 343 -999
2009-08-21 08:55:30 51°32.972 2°59.178 352.8 10.5 343 -999
2009-08-21 08:55:40 51°32.999 2°59.165 352.8 10.5 343 -999
2009-08-21 08:55:50 51°33.026 2°59.153 352.8 10.5 343 -999
2009-08-21 08:56:00 51°33.053 2°59.141 349.8 10.09 346 -999
2009-08-21 08:56:10 51°33.08 2°59.13 349.8 10.09 346 -999
2009-08-21 08:56:20 51°33.107 2°59.115 349.8 10.09 346 -999
2009-08-21 08:56:30 51°33.134 2°59.102 349.8 10.09 346 -999
2009-08-21 08:56:40 51°33.161 2°59.089 349.8 10.09 346 -999
2009-08-21 08:56:50 51°33.188 2°59.077 349.8 10.09 346 -999
2009-08-21 08:57:00 51°33.215 2°59.063 349.8 10.19 344 -999
2009-08-21 08:57:10 51°33.242 2°59.05 349.8 10.19 344 -999
2009-08-21 08:57:20 51°33.269 2°59.037 349.8 10.19 344 -999
2009-08-21 08:57:30 51°33.296 2°59.025 349.8 10.19 344 -999
2009-08-21 08:57:40 51°33.323 2°59.011 349.8 10.19 344 -999
2009-08-21 08:57:50 51°33.35 2°58.998 349.8 10.19 344 -999
2009-08-21 08:58:00 51°33.377 2°58.986 351.3 10.19 344 -999
2009-08-21 08:58:10 51°33.401 2°58.976 351.3 10.19 344 -999
2009-08-21 08:58:20 51°33.428 2°58.964 351.3 10.19 344 -999
2009-08-21 08:58:30 51°33.455 2°58.951 351.3 10.19 344 -999
2009-08-21 08:58:40 51°33.482 2°58.94 351.3 10.19 344 -999
2009-08-21 08:58:50 51°33.509 2°58.927 351.3 10.19 344 -999
2009-08-21 08:59:00 51°33.536 2°58.915 352.8 10.19 341 -999
2009-08-21 08:59:10 51°33.564 2°58.903 352.8 10.19 341 -999
2009-08-21 08:59:20 51°33.591 2°58.892 352.8 10.19 341 -999
2009-08-21 08:59:30 51°33.618 2°58.879 352.8 10.19 341 -999
2009-08-21 08:59:40 51°33.645 2°58.867 352.8 10.19 341 -999
2009-08-21 08:59:50 51°33.672 2°58.854 352.8 10.19 341 -999
2009-08-21 09:00:00 51°33.7 2°58.842 352.3 10.19 343 -999
2009-08-21 09:00:10 51°33.73 2°58.829 352.3 10.19 343 -999
2009-08-21 09:00:20 51°33.757 2°58.817 352.3 10.19 343 -999
2009-08-21 09:00:30 51°33.784 2°58.804 352.3 10.19 343 -999
2009-08-21 09:00:40 51°33.811 2°58.793 352.3 10.19 343 -999
2009-08-21 09:00:50 51°33.839 2°58.78 352.3 10.19 343 -999
2009-08-21 09:01:00 51°33.866 2°58.766 352.6 10.3 340 -999
2009-08-21 09:01:10 51°33.893 2°58.754 352.6 10.3 340 -999
2009-08-21 09:01:20 51°33.921 2°58.74 352.6 10.3 340 -999
2009-08-21 09:01:30 51°33.948 2°58.726 352.6 10.3 340 -999
2009-08-21 09:01:40 51°33.975 2°58.711 352.6 10.3 340 -999
2009-08-21 09:01:50 51°34.001 2°58.695 352.6 10.3 340 -999
2009-08-21 09:02:00 51°34.028 2°58.681 349.6 10.3 343 -999
2009-08-21 09:02:10 51°34.056 2°58.666 349.6 10.3 343 -999
2009-08-21 09:02:20 51°34.083 2°58.651 349.6 10.3 343 -999
2009-08-21 09:02:30 51°34.109 2°58.634 349.6 10.3 343 -999
2009-08-21 09:02:40 51°34.135 2°58.619 349.6 10.3 343 -999
2009-08-21 09:02:50 51°34.162 2°58.603 349.6 10.3 343 -999
2009-08-21 09:03:00 51°34.189 2°58.587 349.8 10.19 339 -999
2009-08-21 09:03:10 51°34.215 2°58.572 349.8 10.19 339 -999
2009-08-21 09:03:20 51°34.242 2°58.558 349.8 10.19 339 -999
2009-08-21 09:03:30 51°34.269 2°58.542 349.8 10.19 339 -999
2009-08-21 09:03:40 51°34.295 2°58.528 349.8 10.19 339 -999
2009-08-21 09:03:50 51°34.322 2°58.511 349.8 10.19 339 -999
2009-08-21 09:04:00 51°34.349 2°58.496 350.1 10.3 340 -999
2009-08-21 09:04:10 51°34.375 2°58.481 350.1 10.3 340 -999
2009-08-21 09:04:20 51°34.402 2°58.466 350.1 10.3 340 -999
2009-08-21 09:04:30 51°34.429 2°58.449 350.1 10.3 340 -999
2009-08-21 09:04:40 51°34.455 2°58.434 350.1 10.3 340 -999
2009-08-21 09:04:50 51°34.482 2°58.419 350.1 10.3 340 -999
2009-08-21 09:05:00 51°34.508 2°58.403 350 10.19 338 -999
2009-08-21 09:05:10 51°34.535 2°58.386 350 10.19 338 -999
2009-08-21 09:05:20 51°34.561 2°58.371 350 10.19 338 -999
2009-08-21 09:05:30 51°34.588 2°58.355 350 10.19 338 -999
2009-08-21 09:05:40 51°34.615 2°58.339 350 10.19 338 -999
2009-08-21 09:05:50 51°34.641 2°58.323 350 10.19 338 -999
2009-08-21 09:06:00 51°34.668 2°58.306 351.3 10.4 336 -999
2009-08-21 09:06:10 51°34.693 2°58.292 351.3 10.4 336 -999
2009-08-21 09:06:20 51°34.72 2°58.277 351.3 10.4 336 -999
2009-08-21 09:06:30 51°34.745 2°58.26 351.3 10.4 336 -999
2009-08-21 09:06:40 51°34.771 2°58.241 351.3 10.4 336 -999
2009-08-21 09:06:50 51°34.797 2°58.224 351.3 10.4 336 -999
2009-08-21 09:07:00 51°34.824 2°58.208 348.8 10.19 340 -999
2009-08-21 09:07:10 51°34.853 2°58.189 348.8 10.19 340 -999
2009-08-21 09:07:20 51°34.879 2°58.172 348.8 10.19 340 -999
2009-08-21 09:07:30 51°34.906 2°58.155 348.8 10.19 340 -999
2009-08-21 09:07:40 51°34.932 2°58.138 348.8 10.19 340 -999
2009-08-21 09:07:50 51°34.959 2°58.122 348.8 10.19 340 -999
2009-08-21 09:08:00 51°34.985 2°58.106 350.5 10.19 340 -999
2009-08-21 09:08:10 51°35.011 2°58.088 350.5 10.19 340 -999
2009-08-21 09:08:20 51°35.038 2°58.072 350.5 10.19 340 -999
2009-08-21 09:08:30 51°35.064 2°58.056 350.5 10.19 340 -999
2009-08-21 09:08:40 51°35.091 2°58.039 350.5 10.19 340 -999
2009-08-21 09:08:50 51°35.118 2°58.024 350.5 10.19 340 -999
2009-08-21 09:09:00 51°35.145 2°58.007 350.3 10.4 339 -999
2009-08-21 09:09:10 51°35.171 2°57.99 350.3 10.4 339 -999
2009-08-21 09:09:20 51°35.198 2°57.973 350.3 10.4 339 -999
2009-08-21 09:09:30 51°35.225 2°57.957 350.3 10.4 339 -999
2009-08-21 09:09:40 51°35.252 2°57.941 350.3 10.4 339 -999
2009-08-21 09:09:50 51°35.278 2°57.924 350.3 10.4 339 -999
2009-08-21 09:10:00 51°35.305 2°57.908 350.8 10.3 340 -999
2009-08-21 09:10:10 51°35.331 2°57.892 350.8 10.3 340 -999
2009-08-21 09:10:20 51°35.359 2°57.877 350.8 10.3 340 -999
2009-08-21 09:10:30 51°35.386 2°57.863 350.8 10.3 340 -999
2009-08-21 09:10:40 51°35.413 2°57.847 350.8 10.3 340 -999
2009-08-21 09:10:50 51°35.441 2°57.832 350.8 10.3 340 -999
2009-08-21 09:11:00 51°35.468 2°57.816 350.6 10.5 340 -999
2009-08-21 09:11:10 51°35.493 2°57.794 350.6 10.5 340 -999
2009-08-21 09:11:20 51°35.517 2°57.766 350.6 10.5 340 -999
2009-08-21 09:11:30 51°35.538 2°57.733 350.6 10.5 340 -999
2009-08-21 09:11:40 51°35.555 2°57.695 350.6 10.5 340 -999
2009-08-21 09:11:50 51°35.57 2°57.652 350.6 10.5 340 -999
2009-08-21 09:12:00 51°35.581 2°57.604 304.8 11.5 288 -999
2009-08-21 09:12:10 51°35.589 2°57.554 304.8 11.5 288 -999
2009-08-21 09:12:20 51°35.594 2°57.502 304.8 11.5 288 -999
2009-08-21 09:12:30 51°35.596 2°57.448 304.8 11.5 288 -999
2009-08-21 09:12:40 51°35.595 2°57.394 304.8 11.5 288 -999
2009-08-21 09:12:50 51°35.591 2°57.339 304.8 11.5 288 -999
2009-08-21 09:13:00 51°35.584 2°57.285 268.1 12.5 257 -999
2009-08-21 09:13:10 51°35.575 2°57.237 268.1 12.5 257 -999
2009-08-21 09:13:20 51°35.562 2°57.186 268.1 12.5 257 -999
2009-08-21 09:13:30 51°35.546 2°57.136 268.1 12.5 257 -999
2009-08-21 09:13:40 51°35.529 2°57.086 268.1 12.5 257 -999
2009-08-21 09:13:50 51°35.51 2°57.032 268.1 12.5 257 -999
2009-08-21 09:14:00 51°35.491 2°56.982 243 12.9 240 -999
2009-08-21 09:14:10 51°35.473 2°56.933 243 12.9 240 -999
2009-08-21 09:14:20 51°35.454 2°56.884 243 12.9 240 -999
2009-08-21 09:14:30 51°35.434 2°56.836 243 12.9 240 -999
2009-08-21 09:14:40 51°35.413 2°56.788 243 12.9 240 -999
2009-08-21 09:14:50 51°35.392 2°56.74 243 12.9 240 -999
2009-08-21 09:15:00 51°35.372 2°56.692 238.5 13.09 235 -999
2009-08-21 09:15:10 51°35.351 2°56.645 238.5 13.09 235 -999
2009-08-21 09:15:20 51°35.33 2°56.598 238.5 13.09 235 -999
2009-08-21 09:15:30 51°35.309 2°56.551 238.5 13.09 235 -999
2009-08-21 09:15:40 51°35.288 2°56.504 238.5 13.09 235 -999
2009-08-21 09:15:50 51°35.267 2°56.458 238.5 13.09 235 -999
2009-08-21 09:16:00 51°35.248 2°56.415 236 13.09 234 -999
2009-08-21 09:16:10 51°35.224 2°56.363 236 13.09 234 -999
2009-08-21 09:16:20 51°35.203 2°56.316 236 13.09 234 -999
2009-08-21 09:16:30 51°35.182 2°56.269 236 13.09 234 -999
2009-08-21 09:16:40 51°35.161 2°56.222 236 13.09 234 -999
2009-08-21 09:16:50 51°35.14 2°56.174 236 13.09 234 -999
2009-08-21 09:17:00 51°35.12 2°56.127 237.8 12.9 234 -999
2009-08-21 09:17:10 51°35.099 2°56.081 237.8 12.9 234 -999
2009-08-21 09:17:20 51°35.077 2°56.035 237.8 12.9 234 -999
2009-08-21 09:17:30 51°35.057 2°55.987 237.8 12.9 234 -999
2009-08-21 09:17:40 51°35.036 2°55.94 237.8 12.9 234 -999
2009-08-21 09:17:50 51°35.015 2°55.895 237.8 12.9 234 -999
2009-08-21 09:18:00 51°34.994 2°55.848 236 12.8 235 -999
2009-08-21 09:18:10 51°34.973 2°55.802 236 12.8 235 -999
2009-08-21 09:18:20 51°34.952 2°55.755 236 12.8 235 -999
2009-08-21 09:18:30 51°34.931 2°55.708 236 12.8 235 -999
2009-08-21 09:18:40 51°34.911 2°55.661 236 12.8 235 -999
2009-08-21 09:18:50 51°34.89 2°55.614 236 12.8 235 -999
2009-08-21 09:19:00 51°34.871 2°55.566 237.8 12.9 237 -999
2009-08-21 09:19:10 51°34.851 2°55.518 237.8 12.9 237 -999
2009-08-21 09:19:20 51°34.831 2°55.471 237.8 12.9 237 -999
2009-08-21 09:19:30 51°34.81 2°55.424 237.8 12.9 237 -999
2009-08-21 09:19:40 51°34.79 2°55.377 237.8 12.9 237 -999
2009-08-21 09:19:50 51°34.77 2°55.33 237.8 12.9 237 -999
2009-08-21 09:20:00 51°34.749 2°55.283 238.9 12.8 236 -999
2009-08-21 09:20:10 51°34.728 2°55.236 238.9 12.8 236 -999
2009-08-21 09:20:20 51°34.706 2°55.189 238.9 12.8 236 -999
2009-08-21 09:20:30 51°34.686 2°55.141 238.9 12.8 236 -999
2009-08-21 09:20:40 51°34.665 2°55.094 238.9 12.8 236 -999
2009-08-21 09:20:50 51°34.645 2°55.047 238.9 12.8 236 -999
2009-08-21 09:21:00 51°34.625 2°54.999 237.8 13 237 -999
2009-08-21 09:21:10 51°34.606 2°54.951 237.8 13 237 -999
2009-08-21 09:21:20 51°34.586 2°54.903 237.8 13 237 -999
2009-08-21 09:21:30 51°34.566 2°54.855 237.8 13 237 -999
2009-08-21 09:21:40 51°34.545 2°54.807 237.8 13 237 -999
2009-08-21 09:21:50 51°34.524 2°54.76 237.8 13 237 -999
2009-08-21 09:22:00 51°34.504 2°54.712 237.6 13.09 235 -999
2009-08-21 09:22:10 51°34.483 2°54.665 237.6 13.09 235 -999
2009-08-21 09:22:20 51°34.463 2°54.617 237.6 13.09 235 -999
2009-08-21 09:22:30 51°34.443 2°54.569 237.6 13.09 235 -999
2009-08-21 09:22:40 51°34.423 2°54.523 237.6 13.09 235 -999
2009-08-21 09:22:50 51°34.403 2°54.475 237.6 13.09 235 -999
2009-08-21 09:23:00 51°34.382 2°54.428 238 13 235 -999
2009-08-21 09:23:10 51°34.363 2°54.385 238 13 235 -999
2009-08-21 09:23:20 51°34.343 2°54.337 238 13 235 -999
2009-08-21 09:23:30 51°34.322 2°54.289 238 13 235 -999
2009-08-21 09:23:40 51°34.302 2°54.241 238 13 235 -999
2009-08-21 09:23:50 51°34.281 2°54.192 238 13 235 -999
2009-08-21 09:24:00 51°34.261 2°54.144 238.1 13.09 238 -999
2009-08-21 09:24:10 51°34.239 2°54.092 238.1 13.09 238 -999
2009-08-21 09:24:20 51°34.218 2°54.044 238.1 13.09 238 -999
2009-08-21 09:24:30 51°34.197 2°53.997 238.1 13.09 238 -999
2009-08-21 09:24:40 51°34.178 2°53.955 238.1 13.09 238 -999
2009-08-21 09:24:50 51°34.156 2°53.903 238.1 13.09 238 -999
2009-08-21 09:25:00 51°34.136 2°53.855 238.4 13 236 -999
2009-08-21 09:25:10 51°34.117 2°53.806 238.4 13 236 -999
2009-08-21 09:25:20 51°34.097 2°53.758 238.4 13 236 -999
2009-08-21 09:25:30 51°34.077 2°53.71 238.4 13 236 -999
2009-08-21 09:25:40 51°34.056 2°53.662 238.4 13 236 -999
2009-08-21 09:25:50 51°34.035 2°53.615 238.4 13 236 -999
2009-08-21 09:26:00 51°34.015 2°53.566 237.4 13.19 236 -999
2009-08-21 09:26:10 51°33.995 2°53.517 237.4 13.19 236 -999
2009-08-21 09:26:20 51°33.977 2°53.467 237.4 13.19 236 -999
2009-08-21 09:26:30 51°33.959 2°53.417 237.4 13.19 236 -999
2009-08-21 09:26:40 51°33.94 2°53.368 237.4 13.19 236 -999
2009-08-21 09:26:50 51°33.922 2°53.318 237.4 13.19 236 -999
2009-08-21 09:27:00 51°33.903 2°53.268 241.6 13.09 238 -999
2009-08-21 09:27:10 51°33.886 2°53.217 241.6 13.09 238 -999
2009-08-21 09:27:20 51°33.873 2°53.165 241.6 13.09 238 -999
2009-08-21 09:27:30 51°33.863 2°53.111 241.6 13.09 238 -999
2009-08-21 09:27:40 51°33.858 2°53.057 241.6 13.09 238 -999
2009-08-21 09:27:50 51°33.857 2°53.003 241.6 13.09 238 -999
2009-08-21 09:28:00 51°33.86 2°52.95 279.5 11.9 277 -999
2009-08-21 09:28:10 51°33.869 2°52.9 279.5 11.9 277 -999
2009-08-21 09:28:20 51°33.882 2°52.855 279.5 11.9 277 -999
2009-08-21 09:28:30 51°33.9 2°52.818 279.5 11.9 277 -999
2009-08-21 09:28:40 51°33.922 2°52.787 279.5 11.9 277 -999
2009-08-21 09:28:50 51°33.946 2°52.761 279.5 11.9 277 -999
2009-08-21 09:29:00 51°33.97 2°52.733 337.3 10.69 323 -999
2009-08-21 09:29:10 51°33.993 2°52.704 337.3 10.69 323 -999
2009-08-21 09:29:20 51°34.017 2°52.673 337.3 10.69 323 -999
2009-08-21 09:29:30 51°34.04 2°52.64 337.3 10.69 323 -999
2009-08-21 09:29:40 51°34.063 2°52.608 337.3 10.69 323 -999